createdAt,value
2023-05-10T00:00:37.390Z,0.00
2023-05-10T00:01:37.426Z,0.00
2023-05-10T00:02:37.459Z,0.00
2023-05-10T00:03:37.436Z,0.00
2023-05-10T00:04:37.331Z,0.00
2023-05-10T00:05:37.329Z,0.00
2023-05-10T00:06:37.305Z,0.00
2023-05-10T00:07:37.307Z,0.00
2023-05-10T00:08:37.326Z,0.00
2023-05-10T00:09:37.295Z,0.00
2023-05-10T00:10:37.276Z,0.00
2023-05-10T00:11:37.252Z,0.00
2023-05-10T00:12:37.279Z,0.00
2023-05-10T00:13:37.228Z,0.00
2023-05-10T00:14:37.239Z,0.00
2023-05-10T00:15:37.218Z,0.00
2023-05-10T00:16:37.240Z,0.00
2023-05-10T00:17:37.257Z,0.00
2023-05-10T00:18:37.208Z,0.00
2023-05-10T00:19:37.170Z,0.00
2023-05-10T00:20:37.167Z,0.00
2023-05-10T00:21:37.186Z,0.00
2023-05-10T00:22:37.159Z,0.00
2023-05-10T00:23:37.131Z,0.00
2023-05-10T00:24:37.113Z,0.00
2023-05-10T00:25:37.096Z,0.00
2023-05-10T00:26:37.137Z,0.00
2023-05-10T00:27:37.080Z,0.00
2023-05-10T00:28:37.091Z,0.00
2023-05-10T00:29:37.074Z,0.00
2023-05-10T00:30:37.054Z,0.00
2023-05-10T00:31:37.120Z,0.00
2023-05-10T00:32:37.159Z,0.00
2023-05-10T00:33:37.012Z,0.00
2023-05-10T00:34:37.021Z,0.00
2023-05-10T00:35:37.044Z,0.00
2023-05-10T00:36:37.027Z,0.00
2023-05-10T00:37:37.013Z,0.00
2023-05-10T00:38:36.985Z,0.00
2023-05-10T00:39:36.951Z,0.00
2023-05-10T00:40:36.991Z,0.00
2023-05-10T00:41:36.942Z,0.00
2023-05-10T00:42:36.931Z,0.00
2023-05-10T00:43:36.961Z,0.00
2023-05-10T00:44:36.926Z,0.00
2023-05-10T00:45:36.922Z,0.00
2023-05-10T00:46:37.034Z,0.00
2023-05-10T00:47:36.998Z,0.00
2023-05-10T00:48:36.906Z,0.00
2023-05-10T00:49:36.888Z,0.00
2023-05-10T00:50:36.879Z,0.00
2023-05-10T00:51:36.857Z,0.00
2023-05-10T00:52:36.840Z,0.00
2023-05-10T00:53:36.846Z,0.00
2023-05-10T00:54:36.838Z,0.00
2023-05-10T00:55:36.824Z,0.00
2023-05-10T00:56:36.808Z,0.00
2023-05-10T00:57:36.802Z,0.00
2023-05-10T00:58:36.765Z,0.00
2023-05-10T00:59:36.779Z,0.00
2023-05-10T01:00:36.742Z,0.00
2023-05-10T01:01:36.766Z,0.00
2023-05-10T01:02:36.814Z,0.00
2023-05-10T01:03:36.760Z,0.00
2023-05-10T01:04:36.780Z,0.00
2023-05-10T01:05:36.701Z,0.00
2023-05-10T01:06:36.680Z,0.00
2023-05-10T01:07:36.668Z,0.00
2023-05-10T01:08:36.708Z,0.00
2023-05-10T01:09:36.650Z,0.00
2023-05-10T01:10:36.653Z,0.00
2023-05-10T01:11:36.639Z,0.00
2023-05-10T01:12:36.681Z,0.00
2023-05-10T01:13:36.624Z,0.00
2023-05-10T01:14:36.619Z,0.00
2023-05-10T01:15:36.631Z,0.00
2023-05-10T01:16:36.591Z,0.00
2023-05-10T01:17:36.660Z,0.00
2023-05-10T01:18:36.606Z,0.00
2023-05-10T01:19:36.543Z,0.00
2023-05-10T01:20:36.560Z,0.00
2023-05-10T01:21:36.526Z,0.00
2023-05-10T01:22:36.544Z,0.00
2023-05-10T01:23:36.510Z,0.00
2023-05-10T01:24:36.495Z,0.00
2023-05-10T01:25:36.485Z,0.00
2023-05-10T01:26:36.484Z,0.00
2023-05-10T01:27:36.490Z,0.00
2023-05-10T01:28:36.458Z,0.00
2023-05-10T01:29:36.443Z,0.00
2023-05-10T01:30:36.432Z,0.00
2023-05-10T01:31:36.497Z,0.00
2023-05-10T01:32:36.478Z,0.00
2023-05-10T01:33:36.394Z,0.00
2023-05-10T01:34:36.388Z,0.00
2023-05-10T01:35:36.387Z,0.00
2023-05-10T01:36:36.394Z,0.00
2023-05-10T01:37:36.361Z,0.00
2023-05-10T01:38:36.459Z,0.00
2023-05-10T01:39:36.341Z,0.00
2023-05-10T01:40:36.327Z,0.00
2023-05-10T01:41:36.342Z,0.00
2023-05-10T01:42:36.300Z,0.00
2023-05-10T01:43:36.288Z,0.00
2023-05-10T01:44:36.285Z,0.00
2023-05-10T01:45:36.296Z,0.00
2023-05-10T01:46:36.390Z,0.00
2023-05-10T01:47:36.279Z,0.00
2023-05-10T01:48:36.238Z,0.00
2023-05-10T01:49:36.242Z,0.00
2023-05-10T01:50:36.283Z,0.00
2023-05-10T01:51:36.222Z,0.00
2023-05-10T01:52:36.191Z,0.00
2023-05-10T01:53:36.187Z,0.00
2023-05-10T01:54:36.168Z,0.00
2023-05-10T01:55:36.202Z,0.00
2023-05-10T01:56:36.162Z,0.00
2023-05-10T01:57:36.152Z,0.00
2023-05-10T01:58:36.144Z,0.00
2023-05-10T01:59:36.167Z,0.00
2023-05-10T02:00:36.213Z,0.00
2023-05-10T02:01:36.104Z,0.00
2023-05-10T02:02:36.109Z,0.00
2023-05-10T02:03:36.109Z,0.00
2023-05-10T02:04:36.109Z,0.00
2023-05-10T02:05:36.062Z,0.00
2023-05-10T02:06:36.042Z,0.00
2023-05-10T02:07:36.044Z,0.00
2023-05-10T02:08:36.025Z,0.00
2023-05-10T02:09:36.062Z,0.00
2023-05-10T02:10:36.009Z,0.00
2023-05-10T02:11:36.001Z,0.00
2023-05-10T02:12:35.996Z,0.00
2023-05-10T02:13:36.052Z,0.00
2023-05-10T02:14:35.983Z,0.00
2023-05-10T02:15:35.975Z,0.00
2023-05-10T02:16:36.004Z,0.00
2023-05-10T02:17:35.952Z,0.00
2023-05-10T02:18:35.966Z,0.00
2023-05-10T02:19:35.924Z,0.00
2023-05-10T02:20:35.911Z,0.00
2023-05-10T02:21:35.898Z,0.00
2023-05-10T02:22:35.879Z,0.00
2023-05-10T02:23:35.898Z,0.00
2023-05-10T02:24:35.874Z,0.00
2023-05-10T02:25:35.865Z,0.00
2023-05-10T02:26:35.847Z,0.00
2023-05-10T02:27:35.869Z,0.00
2023-05-10T02:28:35.845Z,0.00
2023-05-10T02:29:35.824Z,0.00
2023-05-10T02:30:35.818Z,0.00
2023-05-10T02:31:35.849Z,0.00
2023-05-10T02:32:35.834Z,0.00
2023-05-10T02:33:35.772Z,0.00
2023-05-10T02:34:35.746Z,0.00
2023-05-10T02:35:35.746Z,0.00
2023-05-10T02:36:35.732Z,0.00
2023-05-10T02:37:35.751Z,0.00
2023-05-10T02:38:35.717Z,0.00
2023-05-10T02:39:35.703Z,0.00
2023-05-10T02:40:35.707Z,0.00
2023-05-10T02:41:35.710Z,0.00
2023-05-10T02:42:35.723Z,0.00
2023-05-10T02:43:35.661Z,0.00
2023-05-10T02:44:35.649Z,0.00
2023-05-10T02:45:35.668Z,0.00
2023-05-10T02:46:35.862Z,0.00
2023-05-10T02:47:35.664Z,0.00
2023-05-10T02:48:35.616Z,0.00
2023-05-10T02:49:35.601Z,0.00
2023-05-10T02:50:35.642Z,0.00
2023-05-10T02:51:35.623Z,0.00
2023-05-10T02:52:35.570Z,0.00
2023-05-10T02:53:35.592Z,0.00
2023-05-10T02:54:35.548Z,0.00
2023-05-10T02:55:35.545Z,0.00
2023-05-10T02:56:35.571Z,0.00
2023-05-10T02:57:35.523Z,0.00
2023-05-10T02:58:35.518Z,0.00
2023-05-10T02:59:35.536Z,0.00
2023-05-10T03:00:35.517Z,0.00
2023-05-10T03:01:35.532Z,0.00
2023-05-10T03:02:35.500Z,0.00
2023-05-10T03:03:35.489Z,0.00
2023-05-10T03:04:35.485Z,0.00
2023-05-10T03:05:35.491Z,0.00
2023-05-10T03:06:35.448Z,0.00
2023-05-10T03:07:35.423Z,0.00
2023-05-10T03:08:35.409Z,0.00
2023-05-10T03:09:35.427Z,0.00
2023-05-10T03:10:35.352Z,1.00
2023-05-10T03:11:35.334Z,1.00
2023-05-10T03:12:35.320Z,1.00
2023-05-10T03:13:35.362Z,1.00
2023-05-10T03:14:35.328Z,1.00
2023-05-10T03:15:35.286Z,1.00
2023-05-10T03:16:35.295Z,2.00
2023-05-10T03:17:35.307Z,2.00
2023-05-10T03:18:35.335Z,2.00
2023-05-10T03:19:35.263Z,2.00
2023-05-10T03:20:35.228Z,3.00
2023-05-10T03:21:35.246Z,3.00
2023-05-10T03:22:35.214Z,4.00
2023-05-10T03:23:35.233Z,7.00
2023-05-10T03:24:35.184Z,7.00
2023-05-10T03:25:35.193Z,6.00
2023-05-10T03:26:35.197Z,8.00
2023-05-10T03:27:35.193Z,6.00
2023-05-10T03:28:35.187Z,6.00
2023-05-10T03:29:35.174Z,14.00
2023-05-10T03:30:35.130Z,15.00
2023-05-10T03:31:35.146Z,17.00
2023-05-10T03:32:35.223Z,19.00
2023-05-10T03:33:35.120Z,20.00
2023-05-10T03:34:35.081Z,23.00
2023-05-10T03:35:35.152Z,23.00
2023-05-10T03:36:35.062Z,24.00
2023-05-10T03:37:35.104Z,26.00
2023-05-10T03:38:35.146Z,26.00
2023-05-10T03:39:35.054Z,26.00
2023-05-10T03:40:35.022Z,28.00
2023-05-10T03:41:35.032Z,32.00
2023-05-10T03:42:35.095Z,34.00
2023-05-10T03:43:34.997Z,36.00
2023-05-10T03:44:34.995Z,36.00
2023-05-10T03:45:35.003Z,37.00
2023-05-10T03:46:35.023Z,39.00
2023-05-10T03:47:34.999Z,43.00
2023-05-10T03:48:35.001Z,47.00
2023-05-10T03:49:34.948Z,42.00
2023-05-10T03:50:34.936Z,33.00
2023-05-10T03:51:34.904Z,28.00
2023-05-10T03:52:34.956Z,37.00
2023-05-10T03:53:34.910Z,29.00
2023-05-10T03:54:34.880Z,42.00
2023-05-10T03:55:34.894Z,33.00
2023-05-10T03:56:34.901Z,48.00
2023-05-10T03:57:34.874Z,42.00
2023-05-10T03:58:34.836Z,52.00
2023-05-10T03:59:34.848Z,34.00
2023-05-10T04:00:34.849Z,66.00
2023-05-10T04:01:34.893Z,111.00
2023-05-10T04:02:34.879Z,101.00
2023-05-10T04:03:34.849Z,82.00
2023-05-10T04:04:34.782Z,73.00
2023-05-10T04:05:34.801Z,95.00
2023-05-10T04:06:34.779Z,109.00
2023-05-10T04:07:34.781Z,61.00
2023-05-10T04:08:34.744Z,80.00
2023-05-10T04:09:34.746Z,84.00
2023-05-10T04:10:34.774Z,118.00
2023-05-10T04:11:34.731Z,124.00
2023-05-10T04:12:34.738Z,130.00
2023-05-10T04:13:34.733Z,127.00
2023-05-10T04:14:34.774Z,274.00
2023-05-10T04:15:34.781Z,224.00
2023-05-10T04:16:49.703Z,246.00
2023-05-10T04:17:37.395Z,257.00
2023-05-10T04:19:49.122Z,325.00
2023-05-10T04:20:48.848Z,327.00
2023-05-10T04:22:38.953Z,379.00
2023-05-10T04:23:39.854Z,353.00
2023-05-10T04:24:39.888Z,379.00
2023-05-10T04:25:47.078Z,421.00
2023-05-10T04:26:39.872Z,508.00
2023-05-10T04:27:39.803Z,474.00
2023-05-10T04:28:39.810Z,397.00
2023-05-10T04:29:39.812Z,455.00
2023-05-10T04:30:39.776Z,250.00
2023-05-10T04:31:39.768Z,352.00
2023-05-10T04:32:39.775Z,328.00
2023-05-10T04:33:47.983Z,252.00
2023-05-10T04:34:39.833Z,438.00
2023-05-10T04:35:39.751Z,392.00
2023-05-10T04:36:39.735Z,269.00
2023-05-10T04:37:39.690Z,133.00
2023-05-10T04:38:39.719Z,243.00
2023-05-10T04:39:42.018Z,345.00
2023-05-10T04:40:39.741Z,224.00
2023-05-10T04:41:39.688Z,204.00
2023-05-10T04:42:40.525Z,459.00
2023-05-10T04:43:39.825Z,366.00
2023-05-10T04:44:39.648Z,564.00
2023-05-10T04:45:39.675Z,706.00
2023-05-10T04:46:40.774Z,694.00
2023-05-10T04:47:39.652Z,709.00
2023-05-10T04:48:40.183Z,694.00
2023-05-10T04:57:25.731Z,511.00
2023-05-10T04:58:26.414Z,476.00
2023-05-10T04:59:27.557Z,545.00
2023-05-10T05:00:26.545Z,458.00
2023-05-10T05:05:17.611Z,957.00
2023-05-10T05:08:40.237Z,953.00
2023-05-10T05:09:41.288Z,919.00
2023-05-10T05:10:41.938Z,959.00
2023-05-10T05:15:11.840Z,1069.00
2023-05-10T05:16:12.903Z,1075.00
2023-05-10T05:22:00.181Z,1400.00
2023-05-10T05:23:01.070Z,1417.00
2023-05-10T05:24:00.821Z,1332.00
2023-05-10T05:28:53.328Z,1548.00
2023-05-10T05:29:49.693Z,1581.00
2023-05-10T05:30:50.199Z,1747.00
2023-05-10T05:35:41.215Z,1097.00
2023-05-10T05:36:42.176Z,1217.00
2023-05-10T05:37:42.203Z,837.00
2023-05-10T05:40:45.044Z,954.00
2023-05-10T05:41:43.156Z,779.00
2023-05-10T05:42:43.072Z,1159.00
2023-05-10T05:43:43.662Z,1030.00
2023-05-10T05:44:42.919Z,1333.00
2023-05-10T05:45:44.650Z,1571.00
2023-05-10T05:53:31.915Z,2287.00
2023-05-10T05:54:32.885Z,2379.00
2023-05-10T05:55:32.773Z,2193.00
2023-05-10T05:56:32.720Z,1862.00
2023-05-10T05:57:32.678Z,2336.00
2023-05-10T05:58:32.666Z,2456.00
2023-05-10T06:46:36.423Z,1979.00
2023-05-10T06:47:38.950Z,2181.00
2023-05-10T06:48:37.134Z,1459.00
2023-05-10T06:49:37.107Z,2007.00
2023-05-10T07:38:00.207Z,13899.00
2023-05-10T08:38:18.706Z,13681.00
2023-05-10T09:05:08.422Z,23093.00
2023-05-10T09:55:15.203Z,7660.00
2023-05-10T09:56:15.799Z,7110.00
2023-05-10T09:59:25.994Z,10145.00
2023-05-10T10:00:26.864Z,10443.00
2023-05-10T10:01:26.655Z,11480.00
2023-05-10T10:04:01.422Z,9922.00
2023-05-10T10:26:22.197Z,9599.00
2023-05-10T10:30:13.812Z,11106.00
2023-05-10T10:31:14.659Z,4840.00
2023-05-10T10:36:54.283Z,74990.00
2023-05-10T10:37:52.826Z,74825.00
2023-05-10T10:38:52.813Z,75551.00
2023-05-10T10:39:52.789Z,75966.00
2023-05-10T10:40:52.781Z,72306.00
2023-05-10T10:41:52.774Z,19384.00
2023-05-10T10:42:52.930Z,81995.00
2023-05-10T10:43:52.751Z,71390.00
2023-05-10T10:44:52.726Z,12357.00
2023-05-10T10:45:52.717Z,77293.00
2023-05-10T10:46:52.844Z,79244.00
2023-05-10T10:47:52.717Z,73075.00
2023-05-10T10:48:52.693Z,70853.00
2023-05-10T10:49:52.758Z,32161.00
2023-05-10T10:50:52.675Z,32994.00
2023-05-10T10:51:52.703Z,7485.00
2023-05-10T10:52:52.709Z,76290.00
2023-05-10T10:53:52.644Z,78543.00
2023-05-10T10:54:52.677Z,77382.00
2023-05-10T10:55:52.725Z,77511.00
2023-05-10T10:56:52.636Z,75983.00
2023-05-10T10:57:52.653Z,80256.00
2023-05-10T10:58:52.658Z,78478.00
2023-05-10T10:59:52.585Z,77147.00
2023-05-10T11:00:52.680Z,79600.00
2023-05-10T11:01:52.574Z,80304.00
2023-05-10T11:02:52.735Z,79513.00
2023-05-10T11:03:52.598Z,78247.00
2023-05-10T11:04:52.522Z,77454.00
2023-05-10T11:05:52.804Z,76587.00
2023-05-10T11:06:52.521Z,77439.00
2023-05-10T11:07:52.519Z,78966.00
2023-05-10T11:08:52.489Z,78789.00
2023-05-10T11:09:52.476Z,70436.00
2023-05-10T11:10:52.469Z,31213.00
2023-05-10T11:11:52.484Z,13572.00
2023-05-10T11:12:52.484Z,6018.00
2023-05-10T11:13:52.439Z,33185.00
2023-05-10T11:14:52.457Z,7082.00
2023-05-10T11:15:52.670Z,78888.00
2023-05-10T11:16:52.488Z,81582.00
2023-05-10T11:17:52.437Z,81189.00
2023-05-10T11:18:52.406Z,81259.00
2023-05-10T11:19:52.399Z,79215.00
2023-05-10T11:20:52.390Z,79348.00
2023-05-10T11:21:52.365Z,81238.00
2023-05-10T11:22:52.363Z,76473.00
2023-05-10T11:23:52.357Z,72397.00
2023-05-10T11:24:52.413Z,32789.00
2023-05-10T11:25:52.310Z,30032.00
2023-05-10T11:26:52.370Z,62005.00
2023-05-10T11:27:52.336Z,12211.00
2023-05-10T11:28:52.339Z,17406.00
2023-05-10T11:29:52.261Z,11156.00
2023-05-10T11:30:52.306Z,8248.00
2023-05-10T11:31:52.303Z,5341.00
2023-05-10T11:32:52.280Z,4292.00
2023-05-10T11:33:52.292Z,3667.00
2023-05-10T11:34:52.241Z,3054.00
2023-05-10T11:35:52.262Z,2800.00
2023-05-10T11:36:52.210Z,2612.00
2023-05-10T11:37:52.202Z,2399.00
2023-05-10T11:38:52.225Z,3159.00
2023-05-10T11:39:52.223Z,3542.00
2023-05-10T11:40:52.165Z,3529.00
2023-05-10T11:41:52.153Z,3556.00
2023-05-10T11:42:52.177Z,3557.00
2023-05-10T11:43:52.142Z,4002.00
2023-05-10T11:44:52.143Z,4375.00
2023-05-10T11:45:52.157Z,4073.00
2023-05-10T11:46:52.159Z,3334.00
2023-05-10T11:47:52.240Z,3888.00
2023-05-10T11:48:52.107Z,3679.00
2023-05-10T11:49:52.077Z,22426.00
2023-05-10T11:50:52.067Z,75727.00
2023-05-10T11:51:52.076Z,75571.00
2023-05-10T11:52:52.072Z,77165.00
2023-05-10T11:53:52.053Z,79104.00
2023-05-10T11:54:52.039Z,63211.00
2023-05-10T11:55:52.013Z,15413.00
2023-05-10T11:56:52.037Z,78557.00
2023-05-10T11:57:52.002Z,59149.00
2023-05-10T11:58:52.005Z,8361.00
2023-05-10T11:59:51.991Z,7801.00
2023-05-10T12:00:51.969Z,6564.00
2023-05-10T12:01:51.998Z,6552.00
2023-05-10T12:02:52.023Z,6328.00
2023-05-10T12:03:52.106Z,6355.00
2023-05-10T12:04:52.054Z,6204.00
2023-05-10T12:05:51.919Z,6178.00
2023-05-10T12:06:51.901Z,6340.00
2023-05-10T12:07:51.891Z,6101.00
2023-05-10T12:08:51.896Z,5321.00
2023-05-10T12:09:51.899Z,4926.00
2023-05-10T12:10:51.879Z,4377.00
2023-05-10T12:11:51.853Z,3919.00
2023-05-10T12:12:51.834Z,3532.00
2023-05-10T12:13:51.836Z,3389.00
2023-05-10T12:14:51.866Z,3265.00
2023-05-10T12:15:51.807Z,3072.00
2023-05-10T12:16:51.797Z,2852.00
2023-05-10T12:17:51.862Z,2796.00
2023-05-10T12:18:51.877Z,2664.00
2023-05-10T12:19:51.788Z,2590.00
2023-05-10T12:20:51.794Z,2493.00
2023-05-10T12:21:51.741Z,2807.00
2023-05-10T12:22:51.734Z,3588.00
2023-05-10T12:23:51.732Z,3283.00
2023-05-10T12:24:51.787Z,4373.00
2023-05-10T12:25:51.697Z,5741.00
2023-05-10T12:26:51.713Z,5630.00
2023-05-10T12:27:51.712Z,6782.00
2023-05-10T12:28:51.742Z,6533.00
2023-05-10T12:29:51.683Z,7674.00
2023-05-10T12:30:51.653Z,6955.00
2023-05-10T12:31:51.746Z,5501.00
2023-05-10T12:32:51.726Z,4966.00
2023-05-10T12:33:51.642Z,4746.00
2023-05-10T12:34:51.629Z,4452.00
2023-05-10T12:35:51.607Z,4377.00
2023-05-10T12:36:51.586Z,4239.00
2023-05-10T12:37:51.582Z,3727.00
2023-05-10T12:38:51.613Z,3316.00
2023-05-10T12:39:51.553Z,3114.00
2023-05-10T12:40:51.587Z,3156.00
2023-05-10T12:41:51.559Z,3238.00
2023-05-10T12:42:51.608Z,3217.00
2023-05-10T12:43:51.551Z,3104.00
2023-05-10T12:44:51.567Z,2975.00
2023-05-10T12:45:51.545Z,2902.00
2023-05-10T12:46:51.483Z,2820.00
2023-05-10T12:47:51.540Z,2739.00
2023-05-10T12:48:57.557Z,2686.00
2023-05-10T12:49:51.454Z,2632.00
2023-05-10T12:50:51.445Z,2609.00
2023-05-10T12:51:51.436Z,2610.00
2023-05-10T12:52:51.462Z,2609.00
2023-05-10T12:53:51.426Z,2620.00
2023-05-10T12:54:51.402Z,2743.00
2023-05-10T12:55:51.418Z,2857.00
2023-05-10T12:56:51.381Z,2957.00
2023-05-10T12:57:51.389Z,3199.00
2023-05-10T12:58:51.427Z,3274.00
2023-05-10T12:59:51.346Z,3245.00
2023-05-10T13:00:51.361Z,3227.00
2023-05-10T13:01:51.372Z,3253.00
2023-05-10T13:02:51.439Z,3449.00
2023-05-10T13:03:51.320Z,3742.00
2023-05-10T13:04:51.383Z,4026.00
2023-05-10T13:05:51.279Z,4293.00
2023-05-10T13:06:51.330Z,4535.00
2023-05-10T13:07:51.260Z,4901.00
2023-05-10T13:08:51.264Z,5498.00
2023-05-10T13:09:51.235Z,6183.00
2023-05-10T13:10:51.236Z,6950.00
2023-05-10T13:11:51.237Z,7663.00
2023-05-10T13:12:51.229Z,8133.00
2023-05-10T13:13:51.217Z,8911.00
2023-05-10T13:14:51.192Z,9572.00
2023-05-10T13:15:51.238Z,10496.00
2023-05-10T13:16:51.242Z,10841.00
2023-05-10T13:17:51.182Z,10963.00
2023-05-10T13:18:51.216Z,10836.00
2023-05-10T13:19:51.152Z,10890.00
2023-05-10T13:20:51.707Z,10672.00
2023-05-10T13:21:51.202Z,10598.00
2023-05-10T13:22:52.262Z,10694.00
2023-05-10T13:23:52.440Z,10991.00
2023-05-10T13:24:51.095Z,11012.00
2023-05-10T13:25:51.704Z,10444.00
2023-05-10T13:26:51.885Z,10633.00
2023-05-10T13:27:51.061Z,10714.00
2023-05-10T13:28:51.047Z,10585.00
2023-05-10T13:29:51.059Z,10592.00
2023-05-10T13:30:51.050Z,10687.00
2023-05-10T13:31:51.147Z,10730.00
2023-05-10T13:32:51.034Z,10778.00
2023-05-10T13:33:51.889Z,10431.00
2023-05-10T13:34:51.003Z,10032.00
2023-05-10T13:35:50.973Z,9796.00
2023-05-10T13:36:50.977Z,9703.00
2023-05-10T13:37:50.952Z,9559.00
2023-05-10T13:38:50.963Z,9414.00
2023-05-10T13:39:51.027Z,9397.00
2023-05-10T13:40:51.083Z,9509.00
2023-05-10T13:41:50.920Z,9519.00
2023-05-10T13:42:50.899Z,9661.00
2023-05-10T13:43:50.943Z,9851.00
2023-05-10T13:44:50.917Z,9928.00
2023-05-10T13:45:50.897Z,9862.00
2023-05-10T13:46:51.010Z,9760.00
2023-05-10T13:47:50.883Z,9690.00
2023-05-10T13:48:51.013Z,9734.00
2023-05-10T13:49:50.841Z,9856.00
2023-05-10T13:50:50.817Z,9872.00
2023-05-10T13:51:50.854Z,10033.00
2023-05-10T13:52:50.818Z,10065.00
2023-05-10T13:53:50.850Z,10241.00
2023-05-10T13:54:50.822Z,9972.00
2023-05-10T13:55:50.784Z,9867.00
2023-05-10T13:56:50.760Z,9627.00
2023-05-10T13:57:51.479Z,9291.00
2023-05-10T13:58:51.680Z,8894.00
2023-05-10T13:59:50.725Z,8513.00
2023-05-10T14:00:51.065Z,8271.00
2023-05-10T14:01:50.766Z,8026.00
2023-05-10T14:02:50.771Z,7852.00
2023-05-10T14:03:50.744Z,7615.00
2023-05-10T14:04:50.672Z,7536.00
2023-05-10T14:05:52.020Z,6743.00
2023-05-10T14:06:50.688Z,7796.00
2023-05-10T14:07:50.689Z,8168.00
2023-05-10T14:08:50.650Z,8333.00
2023-05-10T14:09:50.707Z,8628.00
2023-05-10T14:10:50.745Z,9636.00
2023-05-10T14:11:50.778Z,9438.00
2023-05-10T14:12:50.635Z,9136.00
2023-05-10T14:13:50.592Z,9658.00
2023-05-10T14:14:50.586Z,7922.00
2023-05-10T14:15:50.587Z,7236.00
2023-05-10T14:16:50.908Z,6839.00
2023-05-10T14:17:50.627Z,8393.00
2023-05-10T14:18:50.644Z,7821.00
2023-05-10T14:19:50.519Z,8396.00
2023-05-10T14:20:50.518Z,8648.00
2023-05-10T14:21:50.543Z,8547.00
2023-05-10T14:22:50.488Z,7945.00
2023-05-10T14:23:50.535Z,8226.00
2023-05-10T14:24:50.499Z,7094.00
2023-05-10T14:25:50.566Z,7358.00
2023-05-10T14:26:50.467Z,7202.00
2023-05-10T14:27:50.445Z,6906.00
2023-05-10T14:28:50.502Z,6343.00
2023-05-10T14:29:51.302Z,6228.00
2023-05-10T14:30:50.432Z,6025.00
2023-05-10T14:31:50.491Z,5431.00
2023-05-10T14:32:50.443Z,4914.00
2023-05-10T14:33:50.429Z,4997.00
2023-05-10T14:34:50.373Z,4973.00
2023-05-10T14:35:50.424Z,4966.00
2023-05-10T14:36:50.357Z,4749.00
2023-05-10T14:37:50.385Z,4627.00
2023-05-10T14:38:50.392Z,4691.00
2023-05-10T14:39:50.339Z,4905.00
2023-05-10T14:40:50.375Z,5110.00
2023-05-10T14:41:50.304Z,5315.00
2023-05-10T14:42:50.280Z,5572.00
2023-05-10T14:43:50.289Z,5845.00
2023-05-10T14:44:50.307Z,5852.00
2023-05-10T14:45:50.320Z,5618.00
2023-05-10T14:46:50.233Z,5461.00
2023-05-10T14:47:50.233Z,5893.00
2023-05-10T14:48:50.236Z,5539.00
2023-05-10T14:49:50.255Z,5562.00
2023-05-10T14:50:50.225Z,5663.00
2023-05-10T14:51:50.206Z,5620.00
2023-05-10T14:52:50.177Z,5587.00
2023-05-10T14:53:50.197Z,5540.00
2023-05-10T14:54:50.188Z,5567.00
2023-05-10T14:55:50.150Z,5616.00
2023-05-10T14:56:50.122Z,5653.00
2023-05-10T14:57:50.151Z,5680.00
2023-05-10T14:58:50.287Z,5838.00
2023-05-10T14:59:50.114Z,6082.00
2023-05-10T15:00:50.098Z,6034.00
2023-05-10T15:01:50.158Z,5824.00
2023-05-10T15:02:50.264Z,5668.00
2023-05-10T15:03:50.141Z,5844.00
2023-05-10T15:04:50.081Z,5948.00
2023-05-10T15:05:50.135Z,5991.00
2023-05-10T15:06:50.036Z,6075.00
2023-05-10T15:07:50.059Z,6125.00
2023-05-10T15:08:50.029Z,6064.00
2023-05-10T15:09:49.989Z,5992.00
2023-05-10T15:10:50.044Z,6062.00
2023-05-10T15:11:50.018Z,6279.00
2023-05-10T15:12:50.074Z,6361.00
2023-05-10T15:13:50.739Z,6252.00
2023-05-10T15:14:49.968Z,6090.00
2023-05-10T15:15:49.962Z,5957.00
2023-05-10T15:16:50.047Z,5791.00
2023-05-10T15:17:50.007Z,5677.00
2023-05-10T15:18:49.970Z,5514.00
2023-05-10T15:19:49.966Z,5376.00
2023-05-10T15:20:49.924Z,5133.00
2023-05-10T15:21:49.996Z,4974.00
2023-05-10T15:22:49.913Z,4840.00
2023-05-10T15:23:49.879Z,4719.00
2023-05-10T15:24:49.951Z,4666.00
2023-05-10T15:25:50.657Z,4699.00
2023-05-10T15:26:50.676Z,4637.00
2023-05-10T15:27:50.084Z,4615.00
2023-05-10T15:28:50.708Z,4642.00
2023-05-10T15:29:50.651Z,4660.00
2023-05-10T15:30:49.780Z,4684.00
2023-05-10T15:31:49.867Z,4670.00
2023-05-10T15:32:49.819Z,4642.00
2023-05-10T15:33:49.777Z,4600.00
2023-05-10T15:34:49.746Z,4542.00
2023-05-10T15:35:49.770Z,4498.00
2023-05-10T15:36:49.732Z,4436.00
2023-05-10T15:37:49.739Z,4357.00
2023-05-10T15:38:49.738Z,4304.00
2023-05-10T15:39:49.754Z,4274.00
2023-05-10T15:40:49.757Z,4241.00
2023-05-10T15:41:49.707Z,4199.00
2023-05-10T15:42:49.696Z,4193.00
2023-05-10T15:43:49.683Z,4245.00
2023-05-10T15:44:49.686Z,4264.00
2023-05-10T15:45:49.757Z,4214.00
2023-05-10T15:46:49.688Z,4115.00
2023-05-10T15:47:49.651Z,4038.00
2023-05-10T15:48:49.647Z,4041.00
2023-05-10T15:49:49.658Z,4110.00
2023-05-10T15:50:49.686Z,4196.00
2023-05-10T15:51:49.588Z,4250.00
2023-05-10T15:52:49.575Z,4331.00
2023-05-10T15:54:05.382Z,4430.00
2023-05-10T15:54:49.582Z,4456.00
2023-05-10T15:55:49.567Z,4418.00
2023-05-10T15:56:49.528Z,4337.00
2023-05-10T15:57:49.538Z,4232.00
2023-05-10T15:58:49.537Z,4164.00
2023-05-10T15:59:49.529Z,4135.00
2023-05-10T16:00:49.556Z,4126.00
2023-05-10T16:01:49.526Z,4117.00
2023-05-10T16:02:49.747Z,4099.00
2023-05-10T16:03:49.491Z,4104.00
2023-05-10T16:04:49.437Z,4139.00
2023-05-10T16:05:49.445Z,4184.00
2023-05-10T16:06:49.428Z,4251.00
2023-05-10T16:07:49.428Z,4318.00
2023-05-10T16:08:49.441Z,4386.00
2023-05-10T16:09:49.440Z,4451.00
2023-05-10T16:10:49.379Z,4473.00
2023-05-10T16:11:49.366Z,4485.00
2023-05-10T16:12:49.429Z,4480.00
2023-05-10T16:13:49.368Z,4446.00
2023-05-10T16:14:49.350Z,4379.00
2023-05-10T16:15:49.347Z,4303.00
2023-05-10T16:16:49.419Z,4249.00
2023-05-10T16:17:49.534Z,4223.00
2023-05-10T16:18:49.387Z,4232.00
2023-05-10T16:19:49.287Z,4259.00
2023-05-10T16:20:49.295Z,4283.00
2023-05-10T16:21:49.273Z,4262.00
2023-05-10T16:22:49.352Z,4194.00
2023-05-10T16:23:49.259Z,4126.00
2023-05-10T16:24:49.286Z,4012.00
2023-05-10T16:25:49.247Z,3894.00
2023-05-10T16:26:49.249Z,3775.00
2023-05-10T16:27:49.248Z,3654.00
2023-05-10T16:28:49.207Z,3570.00
2023-05-10T16:29:49.184Z,3469.00
2023-05-10T16:30:49.242Z,3377.00
2023-05-10T16:31:49.232Z,3266.00
2023-05-10T16:32:49.170Z,3123.00
2023-05-10T16:33:49.197Z,3016.00
2023-05-10T16:34:49.125Z,2885.00
2023-05-10T16:35:49.144Z,2755.00
2023-05-10T16:36:49.110Z,2589.00
2023-05-10T16:37:49.123Z,2423.00
2023-05-10T16:38:49.152Z,2336.00
2023-05-10T16:39:49.299Z,2281.00
2023-05-10T16:40:49.101Z,2238.00
2023-05-10T16:41:49.093Z,2183.00
2023-05-10T16:42:49.042Z,2130.00
2023-05-10T16:43:49.066Z,2100.00
2023-05-10T16:44:49.073Z,2091.00
2023-05-10T16:45:49.069Z,2088.00
2023-05-10T16:46:49.089Z,2092.00
2023-05-10T16:47:49.054Z,2091.00
2023-05-10T16:48:48.994Z,2095.00
2023-05-10T16:49:48.988Z,2096.00
2023-05-10T16:50:48.996Z,2126.00
2023-05-10T16:51:48.980Z,2161.00
2023-05-10T16:52:48.972Z,2202.00
2023-05-10T16:53:48.958Z,2252.00
2023-05-10T16:54:48.955Z,2335.00
2023-05-10T16:55:48.957Z,2390.00
2023-05-10T16:56:48.940Z,2437.00
2023-05-10T16:57:48.916Z,2472.00
2023-05-10T16:58:48.901Z,2499.00
2023-05-10T16:59:50.566Z,2459.00
2023-05-10T17:00:51.328Z,2417.00
2023-05-10T17:01:50.849Z,2415.00
2023-05-10T17:02:48.931Z,2481.00
2023-05-10T17:03:48.977Z,2583.00
2023-05-10T17:04:48.841Z,2661.00
2023-05-10T17:05:48.838Z,2699.00
2023-05-10T17:06:48.802Z,2725.00
2023-05-10T17:07:48.814Z,2714.00
2023-05-10T17:08:48.812Z,2722.00
2023-05-10T17:09:48.779Z,2718.00
2023-05-10T17:10:48.776Z,2701.00
2023-05-10T17:11:48.786Z,2677.00
2023-05-10T17:12:48.733Z,2625.00
2023-05-10T17:13:48.763Z,2539.00
2023-05-10T17:14:48.728Z,2460.00
2023-05-10T17:15:48.798Z,2378.00
2023-05-10T17:16:48.748Z,2286.00
2023-05-10T17:17:48.743Z,2213.00
2023-05-10T17:18:48.712Z,2131.00
2023-05-10T17:19:48.678Z,2086.00
2023-05-10T17:20:48.689Z,2014.00
2023-05-10T17:21:48.711Z,1900.00
2023-05-10T17:22:48.653Z,1858.00
2023-05-10T17:23:48.692Z,1820.00
2023-05-10T17:24:48.657Z,1810.00
2023-05-10T17:25:48.600Z,1770.00
2023-05-10T17:26:48.607Z,1710.00
2023-05-10T17:27:48.612Z,1654.00